Time;durP1;ratioP1;P1;durP2;ratioP2;P2;SDS_P1;SDS_P2;PMS_P1;PMS_P2;Temp;Humidity;BMP_temperature;BMP_pressure;BME280_temperature;BME280_humidity;BME280_pressure;Samples;Min_cycle;Max_cycle;Signal;HPM_P1;HPM_P2
2021/05/12 00:00:24;;;;;;;2.47;1.50;;;14.50;99.90;;;;;;5067618;28;20236;-71
2021/05/12 00:02:50;;;;;;;3.40;1.30;;;14.50;99.90;;;;;;5085900;28;20283;-72
2021/05/12 00:05:21;;;;;;;4.97;1.30;;;14.60;99.90;;;;;;5064331;28;20183;-72
2021/05/12 00:07:47;;;;;;;4.80;1.13;;;14.50;99.90;;;;;;5081239;28;20223;-72
2021/05/12 00:10:16;;;;;;;3.90;1.20;;;14.60;99.90;;;;;;5057175;28;20210;-71
2021/05/12 00:12:43;;;;;;;3.10;1.27;;;14.60;99.90;;;;;;5062015;28;20276;-72
2021/05/12 00:15:14;;;;;;;2.47;1.20;;;14.60;99.90;;;;;;5063949;28;21085;-71
2021/05/12 00:17:42;;;;;;;5.97;1.70;;;14.60;99.90;;;;;;5075614;28;20305;-72
2021/05/12 00:20:11;;;;;;;3.23;1.47;;;14.60;99.90;;;;;;5099448;28;20188;-71
2021/05/12 00:22:52;;;;;;;1.97;1.20;;;14.70;99.90;;;;;;5079937;28;20247;-72
2021/05/12 00:25:19;;;;;;;3.50;1.47;;;14.60;99.90;;;;;;5087324;28;20215;-72
2021/05/12 00:27:46;;;;;;;2.77;1.00;;;14.60;99.90;;;;;;5103303;28;20220;-72
2021/05/12 00:30:18;;;;;;;5.50;1.27;;;14.60;99.90;;;;;;5086978;28;20273;-70
2021/05/12 00:32:45;;;;;;;2.50;1.40;;;14.70;99.90;;;;;;5065869;28;20787;-72
2021/05/12 00:35:13;;;;;;;2.53;1.13;;;14.70;99.90;;;;;;5075718;28;20185;-71
2021/05/12 00:37:41;;;;;;;4.73;1.30;;;14.80;99.90;;;;;;5060784;28;20267;-71
2021/05/12 00:40:12;;;;;;;3.40;1.50;;;14.80;99.90;;;;;;5050213;28;20198;-74
2021/05/12 00:42:38;;;;;;;1.90;1.20;;;14.70;99.90;;;;;;5079868;28;20186;-73
2021/05/12 00:45:10;;;;;;;4.00;1.30;;;14.70;99.90;;;;;;5079815;28;20183;-74
2021/05/12 00:47:36;;;;;;;3.07;1.10;;;14.70;99.90;;;;;;5075357;28;20241;-72
2021/05/12 00:50:05;;;;;;;3.30;1.40;;;14.60;99.90;;;;;;5081085;28;20635;-71
2021/05/12 00:52:32;;;;;;;4.17;1.27;;;14.70;99.90;;;;;;5082907;28;20207;-71
2021/05/12 00:54:59;;;;;;;2.67;1.13;;;14.70;99.90;;;;;;5079451;28;20186;-71
2021/05/12 00:57:25;;;;;;;7.53;1.60;;;14.70;99.90;;;;;;5078434;28;20207;-72
2021/05/12 00:59:53;;;;;;;2.10;1.30;;;14.70;99.90;;;;;;5099769;28;20182;-71
2021/05/12 01:02:21;;;;;;;10.43;1.60;;;14.90;99.90;;;;;;5081295;28;20260;-70
2021/05/12 01:04:48;;;;;;;3.47;1.27;;;15.00;99.90;;;;;;5079636;28;20179;-75
2021/05/12 01:07:14;;;;;;;4.43;1.10;;;15.00;99.90;;;;;;5070090;28;20202;-73
2021/05/12 01:09:40;;;;;;;2.43;1.20;;;15.00;99.90;;;;;;5063200;28;20182;-74
2021/05/12 01:12:07;;;;;;;4.67;1.50;;;15.00;99.90;;;;;;5080468;28;20186;-73
2021/05/12 01:14:33;;;;;;;2.00;1.20;;;15.00;99.90;;;;;;5086191;28;20729;-73
2021/05/12 01:17:00;;;;;;;2.87;1.23;;;14.90;99.90;;;;;;5103149;27;20217;-73
2021/05/12 01:19:27;;;;;;;4.40;1.30;;;15.00;99.90;;;;;;5083950;28;20186;-73
2021/05/12 01:21:55;;;;;;;4.80;1.70;;;15.00;99.90;;;;;;5068005;28;20215;-73
2021/05/12 01:24:22;;;;;;;4.80;1.40;;;15.10;99.90;;;;;;5087121;28;20221;-73
2021/05/12 01:26:48;;;;;;;4.53;1.27;;;15.10;99.90;;;;;;5082477;28;20197;-73
2021/05/12 01:29:14;;;;;;;3.87;1.30;;;15.10;99.90;;;;;;5086172;28;20182;-73
2021/05/12 01:31:43;;;;;;;8.30;1.67;;;15.00;99.90;;;;;;5069404;28;20195;-74
2021/05/12 01:34:21;;;;;;;2.20;1.30;;;15.00;99.90;;;;;;5083952;28;20194;-73
2021/05/12 01:36:50;;;;;;;7.73;1.83;;;15.00;99.90;;;;;;5098958;28;20214;-74
2021/05/12 01:39:17;;;;;;;5.73;1.70;;;15.00;99.90;;;;;;5077227;28;20200;-73
2021/05/12 01:41:45;;;;;;;2.63;1.43;;;15.00;99.90;;;;;;5059635;28;20231;-73
2021/05/12 01:44:12;;;;;;;5.47;1.70;;;15.00;99.90;;;;;;5086130;28;20278;-73
2021/05/12 01:46:46;;;;;;;5.07;1.30;;;15.00;99.90;;;;;;5087899;28;20187;-74
2021/05/12 01:49:13;;;;;;;3.80;1.20;;;15.10;99.90;;;;;;5064055;28;20186;-73
2021/05/12 01:51:40;;;;;;;5.10;1.50;;;15.00;99.90;;;;;;5083219;28;20186;-74
2021/05/12 01:54:09;;;;;;;2.73;1.57;;;15.10;99.90;;;;;;5068919;28;20193;-73
2021/05/12 01:56:39;;;;;;;2.83;1.43;;;15.00;99.70;;;;;;5087039;28;20248;-74
2021/05/12 01:59:06;;;;;;;3.70;1.20;;;15.00;99.80;;;;;;5084092;28;20570;-74
2021/05/12 02:01:34;;;;;;;5.97;1.20;;;15.00;99.70;;;;;;5085893;28;20266;-73
2021/05/12 02:04:06;;;;;;;5.40;1.67;;;15.00;99.50;;;;;;5064128;28;20197;-73
2021/05/12 02:06:34;;;;;;;4.00;1.50;;;15.00;99.70;;;;;;5067531;28;20704;-73
2021/05/12 02:09:03;;;;;;;7.80;1.40;;;15.00;99.60;;;;;;5082156;28;20191;-73
2021/05/12 02:11:29;;;;;;;5.70;1.23;;;15.00;99.50;;;;;;5079426;28;20190;-74
2021/05/12 02:13:55;;;;;;;7.70;1.33;;;14.90;99.40;;;;;;5078963;28;20190;-74
2021/05/12 02:16:21;;;;;;;6.57;1.30;;;15.00;99.30;;;;;;5076132;28;20203;-74
2021/05/12 02:18:48;;;;;;;8.33;1.67;;;15.10;99.70;;;;;;5081517;28;20185;-73
2021/05/12 02:21:14;;;;;;;4.67;1.30;;;15.00;99.70;;;;;;5084531;28;20847;-74
2021/05/12 02:23:40;;;;;;;3.20;1.30;;;15.00;99.60;;;;;;5084297;28;20189;-73
2021/05/12 02:26:07;;;;;;;6.77;1.53;;;15.00;99.70;;;;;;5085064;28;20654;-75
2021/05/12 02:28:33;;;;;;;6.97;1.47;;;15.00;99.50;;;;;;5064630;28;20191;-74
2021/05/12 02:30:59;;;;;;;6.00;1.53;;;15.00;99.10;;;;;;5059570;28;20189;-75
2021/05/12 02:33:26;;;;;;;3.57;1.03;;;15.00;99.20;;;;;;5067029;28;20178;-74
2021/05/12 02:35:52;;;;;;;8.20;1.30;;;15.00;99.30;;;;;;5085278;28;20182;-73
2021/05/12 02:38:19;;;;;;;3.30;1.40;;;15.10;99.40;;;;;;5084224;28;20190;-73
2021/05/12 02:40:45;;;;;;;4.57;1.60;;;15.10;99.30;;;;;;5084840;28;20192;-74
2021/05/12 02:43:11;;;;;;;7.70;1.33;;;15.10;98.90;;;;;;5078186;28;20202;-74
2021/05/12 02:45:38;;;;;;;4.67;1.30;;;15.10;98.90;;;;;;5083571;28;20550;-73
2021/05/12 02:48:06;;;;;;;5.53;1.20;;;15.10;99.10;;;;;;5085417;28;20180;-74
2021/05/12 02:50:39;;;;;;;2.43;1.40;;;15.20;99.40;;;;;;5082488;28;20190;-73
2021/05/12 02:53:08;;;;;;;5.77;1.87;;;15.20;99.10;;;;;;5082019;28;20182;-74
2021/05/12 02:55:37;;;;;;;7.50;1.40;;;15.20;98.90;;;;;;5066485;28;20204;-74
2021/05/12 02:58:08;;;;;;;4.80;1.30;;;15.20;99.00;;;;;;5083010;28;20221;-74
2021/05/12 03:00:38;;;;;;;5.30;1.20;;;15.20;99.00;;;;;;5082729;28;20630;-73
2021/05/12 03:03:05;;;;;;;2.10;1.17;;;15.20;99.60;;;;;;5084677;28;20178;-74
2021/05/12 03:05:32;;;;;;;6.27;1.40;;;15.10;99.90;;;;;;5084157;28;20287;-73
2021/05/12 03:08:00;;;;;;;4.90;1.40;;;15.00;99.90;;;;;;5084031;28;20286;-73
2021/05/12 03:10:29;;;;;;;4.60;1.47;;;15.00;99.90;;;;;;5082561;28;20179;-76
2021/05/12 03:12:56;;;;;;;7.83;1.77;;;14.90;99.90;;;;;;5083350;28;20270;-74
2021/05/12 03:15:25;;;;;;;4.67;1.40;;;14.90;99.90;;;;;;5072654;28;20201;-75
2021/05/12 03:17:58;;;;;;;3.93;1.40;;;14.90;99.90;;;;;;5065114;28;20900;-75
2021/05/12 03:20:28;;;;;;;3.50;1.30;;;15.00;99.90;;;;;;5086912;28;20178;-73
2021/05/12 03:22:55;;;;;;;4.00;1.37;;;15.10;99.90;;;;;;5066450;28;20533;-73
2021/05/12 03:25:22;;;;;;;2.73;1.30;;;15.20;99.90;;;;;;5084248;28;20639;-74
2021/05/12 03:27:49;;;;;;;4.37;1.50;;;15.30;99.90;;;;;;5082807;28;20197;-73
2021/05/12 03:30:33;;;;;;;4.33;1.53;;;15.30;99.90;;;;;;5084649;28;20187;-73
2021/05/12 03:33:02;;;;;;;2.40;1.20;;;15.40;99.90;;;;;;5083370;28;20201;-73
2021/05/12 03:35:29;;;;;;;2.93;1.50;;;15.50;99.90;;;;;;5070553;28;20634;-72
2021/05/12 03:37:57;;;;;;;9.57;1.37;;;15.50;99.90;;;;;;5084799;28;20207;-72
2021/05/12 03:40:25;;;;;;;2.73;1.20;;;15.50;99.90;;;;;;5085432;28;20204;-74
2021/05/12 03:42:52;;;;;;;3.83;1.50;;;15.40;99.90;;;;;;5068618;28;20265;-73
2021/05/12 03:45:18;;;;;;;2.47;1.10;;;15.40;99.90;;;;;;5074887;28;20186;-73
2021/05/12 03:47:45;;;;;;;3.10;1.20;;;15.40;99.90;;;;;;5064589;28;20277;-74
2021/05/12 03:50:12;;;;;;;5.83;1.40;;;15.40;99.90;;;;;;5069879;28;20186;-75
2021/05/12 03:52:38;;;;;;;3.57;1.30;;;15.40;99.90;;;;;;5078655;28;20708;-73
2021/05/12 03:55:07;;;;;;;3.53;1.20;;;15.40;99.90;;;;;;5081858;28;20912;-75
2021/05/12 03:58:08;;;;;;;5.47;1.40;;;15.50;99.90;;;;;;5084863;28;20333;-74
2021/05/12 04:00:38;;;;;;;3.03;1.30;;;15.50;99.90;;;;;;5076564;28;20267;-72
2021/05/12 04:03:04;;;;;;;3.00;1.10;;;15.60;99.90;;;;;;5082459;28;20270;-74
2021/05/12 04:05:31;;;;;;;4.73;1.50;;;15.60;99.90;;;;;;5080994;28;20179;-73
2021/05/12 04:07:57;;;;;;;4.73;1.30;;;15.60;99.90;;;;;;5066251;28;20243;-74
2021/05/12 04:10:24;;;;;;;5.73;1.30;;;15.60;99.90;;;;;;5079861;28;20596;-75
2021/05/12 04:12:53;;;;;;;2.80;1.20;;;15.60;99.90;;;;;;5066327;28;20311;-75
2021/05/12 04:15:19;;;;;;;3.97;1.37;;;15.70;99.90;;;;;;5065411;28;20196;-74
2021/05/12 04:17:45;;;;;;;6.97;1.40;;;15.90;99.90;;;;;;5083304;28;20226;-75
2021/05/12 04:20:21;;;;;;;4.70;1.43;;;15.90;99.90;;;;;;5083305;28;20244;-75
2021/05/12 04:22:48;;;;;;;4.83;2.07;;;15.80;99.90;;;;;;5082553;28;20288;-74
2021/05/12 04:25:20;;;;;;;9.00;3.03;;;15.80;99.90;;;;;;5066118;28;20185;-74
2021/05/12 04:27:49;;;;;;;8.70;3.03;;;15.90;99.90;;;;;;5098583;28;20190;-74
2021/05/12 04:30:19;;;;;;;9.83;2.73;;;16.00;99.90;;;;;;5081752;28;20240;-74
2021/05/12 04:32:46;;;;;;;10.17;4.00;;;16.10;99.90;;;;;;5078215;28;20177;-73
2021/05/12 04:35:18;;;;;;;10.50;4.50;;;16.20;99.90;;;;;;5083284;28;20194;-74
2021/05/12 04:37:49;;;;;;;11.00;4.00;;;16.40;99.90;;;;;;5076993;28;20266;-75
2021/05/12 04:40:15;;;;;;;9.07;4.13;;;16.50;99.90;;;;;;5086497;28;20187;-76
2021/05/12 04:42:41;;;;;;;9.03;4.33;;;16.60;99.90;;;;;;5086949;28;20215;-75
2021/05/12 04:45:10;;;;;;;8.67;3.73;;;16.80;99.90;;;;;;5089052;28;20267;-74
2021/05/12 04:47:38;;;;;;;10.10;3.90;;;16.90;99.90;;;;;;5087638;28;20190;-75
2021/05/12 04:50:13;;;;;;;11.13;4.10;;;17.00;99.90;;;;;;5087094;28;20280;-73
2021/05/12 04:53:10;;;;;;;6.97;3.93;;;17.10;99.90;;;;;;5087109;28;20986;-72
2021/05/12 04:55:36;;;;;;;7.23;3.73;;;17.20;99.90;;;;;;5093836;27;21065;-75
2021/05/12 04:58:03;;;;;;;11.40;3.67;;;17.30;99.90;;;;;;5076582;28;20299;-72
2021/05/12 05:00:29;;;;;;;5.53;2.90;;;17.50;99.90;;;;;;5067037;28;20174;-72
2021/05/12 05:02:56;;;;;;;6.57;3.30;;;17.60;99.90;;;;;;5078147;28;20191;-73
2021/05/12 05:05:25;;;;;;;14.33;3.77;;;17.60;99.90;;;;;;5085947;28;20204;-72
2021/05/12 05:07:51;;;;;;;6.70;3.07;;;17.60;99.90;;;;;;5084977;28;20198;-72
2021/05/12 05:10:19;;;;;;;5.70;3.03;;;17.70;99.90;;;;;;5071383;28;20193;-73
2021/05/12 05:12:45;;;;;;;4.27;2.30;;;17.70;99.90;;;;;;5086947;28;20209;-72
2021/05/12 05:15:12;;;;;;;8.57;2.70;;;17.80;99.90;;;;;;5084245;28;20222;-72
2021/05/12 05:17:40;;;;;;;7.07;1.97;;;17.80;99.90;;;;;;5086407;28;20759;-74
2021/05/12 05:20:08;;;;;;;6.10;1.60;;;17.80;99.90;;;;;;5079519;28;21066;-71
2021/05/12 05:22:36;;;;;;;3.57;1.67;;;17.90;99.90;;;;;;5084422;28;20192;-74
2021/05/12 05:25:03;;;;;;;7.57;1.70;;;18.00;99.90;;;;;;5064705;28;20527;-74
2021/05/12 05:27:30;;;;;;;7.53;2.10;;;18.10;99.90;;;;;;5076464;28;20201;-73
2021/05/12 05:29:56;;;;;;;4.60;1.87;;;18.10;99.90;;;;;;5067865;28;20179;-73
2021/05/12 05:32:22;;;;;;;5.87;1.53;;;18.20;99.90;;;;;;5087378;28;20186;-73
2021/05/12 05:34:49;;;;;;;4.87;1.77;;;18.20;99.90;;;;;;5085358;28;20190;-72
2021/05/12 05:37:16;;;;;;;6.50;1.20;;;18.30;99.90;;;;;;5082194;28;20206;-73
2021/05/12 05:39:42;;;;;;;1.73;1.23;;;18.40;99.80;;;;;;5083800;28;20197;-73
2021/05/12 05:42:11;;;;;;;2.60;1.30;;;18.60;99.00;;;;;;5084093;28;20609;-72
2021/05/12 05:44:39;;;;;;;9.70;1.50;;;18.80;98.00;;;;;;5070781;28;20190;-72
2021/05/12 05:47:05;;;;;;;7.37;1.70;;;19.10;97.10;;;;;;5085064;28;20178;-71
2021/05/12 05:49:32;;;;;;;1.63;1.20;;;19.20;97.00;;;;;;5069669;28;20186;-73
2021/05/12 05:51:59;;;;;;;4.00;1.30;;;19.30;97.20;;;;;;5084283;28;20182;-72
2021/05/12 05:54:25;;;;;;;3.80;1.37;;;19.30;98.90;;;;;;5087034;28;20208;-74
2021/05/12 05:56:52;;;;;;;4.77;1.50;;;19.30;97.70;;;;;;5063761;28;20295;-72
2021/05/12 05:59:19;;;;;;;5.80;1.30;;;19.40;95.10;;;;;;5076576;28;20259;-73
2021/05/12 06:01:45;;;;;;;2.40;1.20;;;19.70;92.60;;;;;;5067615;28;20174;-73
2021/05/12 06:04:11;;;;;;;10.23;1.30;;;19.60;96.20;;;;;;5069771;28;20806;-73
2021/05/12 06:06:38;;;;;;;4.37;1.50;;;19.60;94.80;;;;;;5083267;28;20288;-73
2021/05/12 06:09:05;;;;;;;7.13;1.40;;;19.80;95.50;;;;;;5085366;28;20185;-72
2021/05/12 06:11:31;;;;;;;5.53;1.33;;;20.10;95.60;;;;;;5086320;28;20209;-73
2021/05/12 06:13:57;;;;;;;5.33;1.37;;;20.30;95.00;;;;;;5068377;28;20179;-72
2021/05/12 06:16:23;;;;;;;8.33;1.53;;;20.40;95.20;;;;;;5082965;28;20612;-73
2021/05/12 06:18:51;;;;;;;8.77;1.87;;;20.30;96.00;;;;;;5076708;28;20175;-70
2021/05/12 06:21:19;;;;;;;11.67;1.80;;;20.50;94.70;;;;;;5076092;28;20236;-73
2021/05/12 06:23:45;;;;;;;9.40;1.50;;;20.70;95.00;;;;;;5081295;28;20243;-71
2021/05/12 06:26:17;;;;;;;11.00;1.83;;;20.90;95.90;;;;;;5060325;28;21254;-72
2021/05/12 06:28:44;;;;;;;5.23;1.77;;;20.90;96.40;;;;;;5074466;28;20693;-71
2021/05/12 06:31:12;;;;;;;8.80;1.70;;;21.00;96.50;;;;;;5065043;28;20217;-73
2021/05/12 06:33:42;;;;;;;6.40;1.40;;;21.10;97.20;;;;;;5084239;28;20189;-72
2021/05/12 06:36:09;;;;;;;6.13;1.80;;;21.20;98.30;;;;;;5084036;28;20182;-73
2021/05/12 06:38:36;;;;;;;8.70;1.90;;;21.30;99.80;;;;;;5068090;28;20201;-71
2021/05/12 06:41:03;;;;;;;13.93;2.10;;;21.30;99.90;;;;;;5080502;28;20182;-73
2021/05/12 06:43:30;;;;;;;9.57;2.30;;;21.30;99.90;;;;;;5066608;28;20186;-74
2021/05/12 06:45:57;;;;;;;10.60;2.10;;;21.50;99.90;;;;;;5079915;28;20250;-72
2021/05/12 06:48:23;;;;;;;8.60;1.97;;;21.60;99.90;;;;;;5066445;28;20927;-73
2021/05/12 06:50:50;;;;;;;8.27;2.40;;;21.70;99.90;;;;;;5081781;28;20301;-73
2021/05/12 06:53:26;;;;;;;8.70;2.20;;;21.70;99.90;;;;;;5065794;28;20322;-73
2021/05/12 06:55:54;;;;;;;9.57;1.83;;;21.80;99.90;;;;;;5077234;28;20463;-71
2021/05/12 06:58:21;;;;;;;9.63;2.27;;;21.80;99.90;;;;;;5080992;28;20260;-72
2021/05/12 07:00:50;;;;;;;7.73;1.97;;;21.90;99.90;;;;;;5077543;28;20259;-71
2021/05/12 07:03:17;;;;;;;8.47;2.30;;;22.00;99.90;;;;;;5079513;28;20229;-72
2021/05/12 07:05:44;;;;;;;9.50;2.57;;;22.10;99.90;;;;;;5080915;28;20210;-72
2021/05/12 07:08:10;;;;;;;8.57;2.30;;;22.10;99.90;;;;;;5079752;28;20186;-71
2021/05/12 07:10:37;;;;;;;9.80;2.40;;;22.20;99.90;;;;;;5079043;28;20266;-71
2021/05/12 07:13:05;;;;;;;6.63;1.90;;;22.30;99.90;;;;;;5079878;28;20977;-71
2021/05/12 07:15:33;;;;;;;8.07;2.60;;;22.40;99.90;;;;;;5079149;28;21016;-71
2021/05/12 07:17:59;;;;;;;12.00;2.20;;;22.50;99.90;;;;;;5064501;28;20296;-71
2021/05/12 07:20:26;;;;;;;8.20;1.97;;;22.60;99.90;;;;;;5063995;28;20295;-73
2021/05/12 07:22:52;;;;;;;9.80;2.30;;;22.60;99.90;;;;;;5080169;28;20197;-71
2021/05/12 07:25:19;;;;;;;10.43;2.20;;;22.70;99.90;;;;;;5082365;28;20185;-73
2021/05/12 07:27:47;;;;;;;13.77;2.60;;;22.70;99.90;;;;;;5084466;28;20189;-72
2021/05/12 07:30:15;;;;;;;8.70;2.13;;;22.70;99.90;;;;;;5074260;28;20224;-70
2021/05/12 07:32:41;;;;;;;14.67;2.30;;;22.70;99.90;;;;;;5065512;28;20265;-69
2021/05/12 07:35:08;;;;;;;11.53;2.50;;;22.70;99.90;;;;;;5081387;28;20187;-71
2021/05/12 07:37:35;;;;;;;12.23;2.13;;;22.80;99.90;;;;;;5078285;28;20209;-72
2021/05/12 07:40:01;;;;;;;6.47;2.10;;;22.80;99.90;;;;;;5076392;28;20186;-71
2021/05/12 07:42:27;;;;;;;8.83;1.90;;;22.90;99.90;;;;;;5062504;28;20186;-72
2021/05/12 07:44:55;;;;;;;6.70;2.17;;;23.00;99.90;;;;;;5080565;28;21787;-73
2021/05/12 07:47:21;;;;;;;8.23;2.30;;;23.00;99.90;;;;;;5078658;28;20186;-71
2021/05/12 07:49:47;;;;;;;6.77;2.07;;;23.00;99.90;;;;;;5077450;28;20276;-71
2021/05/12 07:52:15;;;;;;;8.10;2.17;;;23.10;99.90;;;;;;5063394;28;20188;-73
2021/05/12 07:54:43;;;;;;;16.40;2.30;;;23.20;99.90;;;;;;5065097;28;20186;-73
2021/05/12 07:57:11;;;;;;;12.70;2.67;;;23.20;99.90;;;;;;5077050;28;21223;-73
2021/05/12 07:59:38;;;;;;;12.90;2.47;;;23.20;99.90;;;;;;5059434;28;20670;-73
2021/05/12 08:02:05;;;;;;;10.60;2.57;;;23.30;99.90;;;;;;5067498;28;20183;-72
2021/05/12 08:04:33;;;;;;;7.60;2.30;;;23.30;99.90;;;;;;5094591;27;20178;-75
2021/05/12 08:07:00;;;;;;;10.03;2.27;;;23.40;99.90;;;;;;5092720;28;20220;-73
2021/05/12 08:09:27;;;;;;;14.37;2.70;;;23.50;99.90;;;;;;5082539;28;20171;-73
2021/05/12 08:11:55;;;;;;;17.97;3.13;;;23.60;99.90;;;;;;5081793;28;20263;-72
2021/05/12 08:14:21;;;;;;;13.73;2.87;;;23.60;99.90;;;;;;5077584;28;20241;-73
2021/05/12 08:16:47;;;;;;;8.80;2.50;;;23.60;99.90;;;;;;5083035;28;20246;-72
2021/05/12 08:19:15;;;;;;;14.30;2.80;;;23.70;99.90;;;;;;5080155;28;20733;-73
2021/05/12 08:21:47;;;;;;;8.63;2.50;;;23.80;99.90;;;;;;5078874;28;20186;-71
2021/05/12 08:24:15;;;;;;;9.67;2.70;;;23.90;99.90;;;;;;5079454;28;20301;-72
2021/05/12 08:26:41;;;;;;;18.93;2.93;;;24.00;99.90;;;;;;5081994;28;20193;-73
2021/05/12 08:29:08;;;;;;;12.87;2.87;;;23.90;99.90;;;;;;5060870;28;20186;-70
2021/05/12 08:31:38;;;;;;;13.17;2.30;;;23.90;99.90;;;;;;5070404;28;20848;-73
2021/05/12 08:34:08;;;;;;;10.20;2.60;;;24.00;99.90;;;;;;5091011;28;20518;-73
2021/05/12 08:36:35;;;;;;;11.57;3.03;;;24.10;99.90;;;;;;5079425;28;20332;-74
2021/05/12 08:39:06;;;;;;;13.23;3.27;;;24.20;99.90;;;;;;5081454;28;20548;-73
2021/05/12 08:41:35;;;;;;;10.93;2.77;;;24.20;99.90;;;;;;5086823;28;20188;-74
2021/05/12 08:44:05;;;;;;;10.07;3.17;;;24.30;99.90;;;;;;5079352;28;20523;-73
2021/05/12 08:46:33;;;;;;;14.73;2.90;;;24.40;99.90;;;;;;5066363;28;20239;-75
2021/05/12 08:49:01;;;;;;;8.20;2.73;;;24.50;99.90;;;;;;5080758;28;20194;-73
2021/05/12 08:51:27;;;;;;;14.93;3.13;;;24.70;99.90;;;;;;5082593;28;20182;-74
2021/05/12 08:53:57;;;;;;;12.53;2.70;;;24.70;99.90;;;;;;5061025;28;20186;-73
2021/05/12 08:56:25;;;;;;;11.03;3.20;;;24.70;99.90;;;;;;5073226;28;20183;-73
2021/05/12 08:58:51;;;;;;;7.37;2.90;;;24.80;99.90;;;;;;5090166;28;20291;-73
2021/05/12 09:01:18;;;;;;;10.27;3.10;;;24.80;99.90;;;;;;5064525;28;20183;-74
2021/05/12 09:03:46;;;;;;;10.97;3.20;;;24.80;99.90;;;;;;5071996;28;20187;-73
2021/05/12 09:06:13;;;;;;;9.93;2.97;;;24.90;99.90;;;;;;5062567;28;20208;-72
2021/05/12 09:08:41;;;;;;;9.70;3.07;;;25.00;99.90;;;;;;5063988;28;20200;-73
2021/05/12 09:11:08;;;;;;;12.37;3.20;;;25.00;99.90;;;;;;5078066;28;20179;-73
2021/05/12 09:13:38;;;;;;;13.90;3.53;;;25.00;99.90;;;;;;5089482;28;20191;-72
2021/05/12 09:16:29;;;;;;;17.37;3.17;;;25.00;99.90;;;;;;5065459;28;20190;-73
2021/05/12 09:19:26;;;;;;;11.38;2.97;;;25.00;99.90;;;;;;5079028;28;20249;-75
2021/05/12 09:21:58;;;;;;;14.95;3.30;;;25.10;99.90;;;;;;5072791;28;20202;-75
2021/05/12 09:24:40;;;;;;;14.23;3.10;;;25.20;99.90;;;;;;5073423;28;20990;-75
2021/05/12 09:27:10;;;;;;;11.00;3.17;;;25.30;99.90;;;;;;5074839;28;20645;-73
2021/05/12 09:29:42;;;;;;;16.67;3.58;;;25.30;99.90;;;;;;5083380;28;20559;-73
2021/05/12 09:32:17;;;;;;;12.32;3.25;;;25.40;99.90;;;;;;5078272;28;20205;-73
2021/05/12 09:35:01;;;;;;;9.50;3.20;;;25.50;99.90;;;;;;5071622;28;20193;-74
2021/05/12 09:37:33;;;;;;;17.58;3.25;;;25.70;99.90;;;;;;5059581;28;20698;-73
2021/05/12 09:40:06;;;;;;;14.57;3.00;;;25.60;99.90;;;;;;5082063;28;20278;-72
2021/05/12 09:42:33;;;;;;;12.10;3.75;;;25.60;99.90;;;;;;5083864;28;20267;-72
2021/05/12 09:45:13;;;;;;;11.00;3.10;;;25.80;99.90;;;;;;5070659;28;20603;-73
2021/05/12 09:47:41;;;;;;;10.18;2.95;;;25.80;99.90;;;;;;5081505;28;20190;-72
2021/05/12 09:50:30;;;;;;;13.25;2.92;;;25.90;99.90;;;;;;5084040;28;20265;-72
2021/05/12 09:53:01;;;;;;;13.40;3.40;;;26.00;99.90;;;;;;5080146;28;20193;-72
2021/05/12 09:55:44;;;;;;;12.30;3.13;;;26.00;99.90;;;;;;5082386;28;20672;-70
2021/05/12 09:58:17;;;;;;;11.32;3.28;;;26.00;99.90;;;;;;5066076;28;20206;-74
2021/05/12 10:00:47;;;;;;;12.27;3.33;;;26.10;99.90;;;;;;5080268;28;20269;-73
2021/05/12 10:03:15;;;;;;;7.15;3.05;;;26.10;99.90;;;;;;5081174;28;20220;-71
2021/05/12 10:06:01;;;;;;;11.65;3.17;;;26.40;99.90;;;;;;5059035;28;20207;-71
2021/05/12 10:08:37;;;;;;;11.57;3.10;;;26.60;99.90;;;;;;5078044;28;20194;-70
2021/05/12 10:11:11;;;;;;;9.48;3.03;;;26.60;99.90;;;;;;5080733;28;20241;-70
2021/05/12 10:13:38;;;;;;;14.20;3.80;;;26.60;99.90;;;;;;5082780;28;20631;-69
2021/05/12 10:16:12;;;;;;;12.35;3.70;;;26.60;99.90;;;;;;5083018;28;20428;-69
2021/05/12 10:18:39;;;;;;;13.57;3.33;;;26.70;99.90;;;;;;5081932;28;20202;-71
2021/05/12 10:21:12;;;;;;;13.60;3.50;;;26.70;99.90;;;;;;5078680;28;20417;-70
2021/05/12 10:23:39;;;;;;;11.90;3.47;;;26.60;99.90;;;;;;5076516;28;20410;-69
2021/05/12 10:26:07;;;;;;;15.65;3.72;;;26.90;99.90;;;;;;5080885;28;20182;-71
2021/05/12 10:28:40;;;;;;;13.95;3.50;;;27.10;99.90;;;;;;5081380;28;20729;-71
2021/05/12 10:31:10;;;;;;;13.07;2.97;;;27.10;99.90;;;;;;5087370;28;20780;-71
2021/05/12 10:33:54;;;;;;;10.75;3.20;;;26.90;99.90;;;;;;5083772;28;20205;-72
2021/05/12 10:36:23;;;;;;;11.00;2.95;;;26.50;99.90;;;;;;5073485;28;20186;-70
2021/05/12 10:38:51;;;;;;;14.43;3.22;;;26.70;99.90;;;;;;5076921;28;20209;-70
2021/05/12 10:41:47;;;;;;;11.77;3.33;;;26.70;99.90;;;;;;5078998;28;20991;-72
2021/05/12 10:44:35;;;;;;;15.40;3.42;;;26.60;99.90;;;;;;5081884;28;20212;-69
2021/05/12 10:47:09;;;;;;;14.40;3.08;;;26.50;99.90;;;;;;5064607;28;20210;-70
2021/05/12 10:49:37;;;;;;;9.98;3.53;;;26.50;99.90;;;;;;5079468;28;20201;-72
2021/05/12 10:52:10;;;;;;;13.63;3.28;;;26.40;99.90;;;;;;5081931;28;20232;-70
2021/05/12 10:54:42;;;;;;;15.43;3.40;;;26.20;99.90;;;;;;5067562;28;20188;-72
2021/05/12 10:57:10;;;;;;;10.95;2.72;;;26.20;99.90;;;;;;5060359;28;20210;-72
2021/05/12 10:59:51;;;;;;;15.93;3.95;;;26.10;99.90;;;;;;5083929;28;20185;-72
2021/05/12 11:02:18;;;;;;;9.68;2.70;;;26.00;99.90;;;;;;5085769;28;20178;-73
2021/05/12 11:05:00;;;;;;;15.88;3.42;;;26.00;99.90;;;;;;5079305;28;20206;-72
2021/05/12 11:07:27;;;;;;;14.85;3.25;;;26.20;99.90;;;;;;5075199;28;20210;-71
2021/05/12 11:09:55;;;;;;;14.52;3.55;;;26.30;99.90;;;;;;5080480;28;20289;-73
2021/05/12 11:12:33;;;;;;;9.52;3.17;;;26.00;99.90;;;;;;5081809;28;20183;-73
2021/05/12 11:15:02;;;;;;;17.52;3.53;;;26.00;99.90;;;;;;5081216;28;20638;-71
2021/05/12 11:17:46;;;;;;;19.02;3.55;;;25.90;99.90;;;;;;5087163;28;20695;-73
2021/05/12 11:20:17;;;;;;;12.07;3.72;;;25.90;99.90;;;;;;5080270;28;20654;-72
2021/05/12 11:22:45;;;;;;;18.45;3.70;;;26.00;99.90;;;;;;5061186;28;20201;-72
2021/05/12 11:33:26;;;;;;;12.35;3.22;;;25.90;99.90;;;;;;5076169;28;20662;-72
2021/05/12 11:36:18;;;;;;;15.50;3.13;;;25.90;99.90;;;;;;5059132;28;20762;-73
2021/05/12 11:38:46;;;;;;;13.63;3.30;;;25.90;99.90;;;;;;5052741;28;20271;-73
2021/05/12 11:41:18;;;;;;;12.45;3.45;;;25.90;99.90;;;;;;5063287;28;20190;-73
2021/05/12 11:43:59;;;;;;;12.18;3.58;;;26.00;99.90;;;;;;5094012;28;20182;-73
2021/05/12 11:46:39;;;;;;;15.80;3.65;;;25.90;99.90;;;;;;5065523;28;20186;-73
2021/05/12 11:49:10;;;;;;;17.15;3.60;;;26.00;99.90;;;;;;5081799;28;20221;-71
2021/05/12 11:51:48;;;;;;;18.95;3.70;;;25.90;99.90;;;;;;5061091;28;21441;-73
2021/05/12 11:54:23;;;;;;;13.75;3.22;;;25.90;99.90;;;;;;5072866;28;20190;-71
2021/05/12 11:56:55;;;;;;;21.00;3.60;;;25.90;99.90;;;;;;5091848;28;20216;-72
2021/05/12 11:59:26;;;;;;;9.50;3.20;;;25.90;99.90;;;;;;5084142;28;20742;-74
2021/05/12 12:02:08;;;;;;;10.57;3.30;;;25.90;99.90;;;;;;5081442;28;20220;-72
2021/05/12 12:04:36;;;;;;;10.82;3.22;;;25.90;99.90;;;;;;5079334;28;20821;-72
2021/05/12 12:07:07;;;;;;;15.15;3.35;;;26.00;99.90;;;;;;5077967;28;20240;-72
2021/05/12 12:09:34;;;;;;;14.65;3.53;;;26.00;99.90;;;;;;5057771;28;20973;-72
2021/05/12 12:12:01;;;;;;;16.65;3.40;;;26.00;99.90;;;;;;5085326;28;20205;-72
2021/05/12 12:14:33;;;;;;;19.95;3.55;;;25.90;99.90;;;;;;5064882;28;20313;-73
2021/05/12 12:17:00;;;;;;;16.85;4.00;;;25.80;99.90;;;;;;5095076;28;20685;-72
2021/05/12 12:19:27;;;;;;;10.82;3.22;;;25.70;99.90;;;;;;5059751;28;20855;-72
2021/05/12 12:21:55;;;;;;;12.48;3.63;;;25.70;99.90;;;;;;5060376;28;20535;-71
2021/05/12 12:24:28;;;;;;;8.75;3.25;;;25.90;99.90;;;;;;5082615;28;20186;-72
2021/05/12 12:27:02;;;;;;;16.55;3.55;;;25.90;99.90;;;;;;5077653;28;20269;-73
2021/05/12 12:29:32;;;;;;;11.70;3.65;;;25.80;99.90;;;;;;5079005;28;20220;-74
2021/05/12 12:32:05;;;;;;;14.30;3.55;;;25.90;99.90;;;;;;5066594;28;20204;-74
2021/05/12 12:34:37;;;;;;;14.27;3.55;;;25.90;99.90;;;;;;5063578;28;21515;-73
2021/05/12 12:37:17;;;;;;;16.73;3.30;;;25.80;99.90;;;;;;5079194;28;20206;-73
2021/05/12 12:40:06;;;;;;;12.90;4.00;;;25.70;99.90;;;;;;5070073;28;20254;-75
2021/05/12 12:42:39;;;;;;;8.95;3.15;;;25.70;99.90;;;;;;5083084;28;20511;-72
2021/05/12 12:45:21;;;;;;;15.13;3.90;;;25.70;99.90;;;;;;5083816;28;20666;-72
2021/05/12 12:48:03;;;;;;;20.83;3.85;;;25.70;99.90;;;;;;5065072;28;20190;-72
2021/05/12 12:50:33;;;;;;;12.47;3.77;;;25.60;99.90;;;;;;5061315;28;20197;-72
2021/05/12 12:53:06;;;;;;;18.30;3.47;;;25.60;99.90;;;;;;5084801;28;20208;-74
2021/05/12 12:55:36;;;;;;;9.38;2.70;;;25.60;99.90;;;;;;5081449;28;20194;-73
2021/05/12 12:58:07;;;;;;;15.32;3.50;;;25.60;99.90;;;;;;5067309;28;20202;-72
2021/05/12 13:00:43;;;;;;;13.95;3.17;;;25.60;99.90;;;;;;5083273;28;20965;-74
2021/05/12 13:03:11;;;;;;;19.93;3.73;;;25.70;99.90;;;;;;5084753;28;20280;-73